Time;durP1;ratioP1;P1;durP2;ratioP2;P2;SDS_P1;SDS_P2;PMS_P1;PMS_P2;Temp;Humidity;BMP_temperature;BMP_pressure;BME280_temperature;BME280_humidity;BME280_pressure;Samples;Min_cycle;Max_cycle;Signal;HPM_P1;HPM_P2
2022/11/12 00:00:49;;;;;;;9.50;8.70;;;10.90;99.90;;;;;;5053181;28;20423;-70
2022/11/12 00:03:14;;;;;;;9.50;8.70;;;10.90;99.90;;;;;;5033074;28;20427;-71
2022/11/12 00:05:40;;;;;;;9.87;8.97;;;10.80;99.90;;;;;;5053547;28;20496;-70
2022/11/12 00:08:06;;;;;;;10.30;9.07;;;10.80;99.90;;;;;;5053328;28;20228;-70
2022/11/12 00:10:32;;;;;;;9.10;8.27;;;10.80;99.90;;;;;;5052557;28;20264;-70
2022/11/12 00:12:58;;;;;;;9.33;7.73;;;10.80;99.90;;;;;;5053337;28;20199;-70
2022/11/12 00:15:25;;;;;;;9.77;8.20;;;10.80;99.90;;;;;;5034655;28;20416;-70
2022/11/12 00:17:50;;;;;;;7.90;7.20;;;10.80;99.90;;;;;;5053004;28;20415;-70
2022/11/12 00:20:16;;;;;;;7.20;6.60;;;10.80;99.90;;;;;;5034895;28;20502;-70
2022/11/12 00:22:42;;;;;;;8.53;7.80;;;10.70;99.90;;;;;;5052114;28;20192;-70
2022/11/12 00:25:08;;;;;;;8.90;8.10;;;10.70;99.90;;;;;;5052397;28;20519;-69
2022/11/12 00:27:34;;;;;;;7.80;6.90;;;10.70;99.90;;;;;;5052399;28;20207;-69
2022/11/12 00:30:01;;;;;;;7.90;7.20;;;10.70;99.90;;;;;;5051448;28;20777;-70
2022/11/12 00:32:27;;;;;;;8.50;7.70;;;10.60;99.90;;;;;;5034439;28;20459;-70
2022/11/12 00:34:53;;;;;;;9.40;8.60;;;10.70;99.90;;;;;;5052960;28;20430;-70
2022/11/12 00:37:19;;;;;;;9.40;7.47;;;10.60;99.90;;;;;;5052063;28;20495;-70
2022/11/12 00:39:45;;;;;;;9.10;8.33;;;10.60;99.90;;;;;;5035195;28;20426;-70
2022/11/12 00:42:11;;;;;;;9.10;8.17;;;10.50;99.90;;;;;;5052655;28;20423;-70
2022/11/12 00:44:37;;;;;;;8.80;8.00;;;10.50;99.90;;;;;;5052753;28;20441;-69
2022/11/12 00:47:03;;;;;;;8.30;7.60;;;10.50;99.90;;;;;;5034179;28;20174;-70
2022/11/12 00:49:31;;;;;;;10.30;9.20;;;10.50;99.90;;;;;;5052171;28;20171;-70
2022/11/12 00:51:57;;;;;;;10.10;9.20;;;10.40;99.90;;;;;;5052104;28;20209;-70
2022/11/12 00:54:23;;;;;;;9.23;8.43;;;10.40;99.90;;;;;;5052113;28;20423;-70
2022/11/12 00:56:49;;;;;;;9.63;8.73;;;10.40;99.90;;;;;;5052266;28;20198;-70
2022/11/12 00:59:14;;;;;;;10.73;7.77;;;10.40;99.90;;;;;;5033224;28;20187;-71
2022/11/12 01:01:40;;;;;;;9.30;8.50;;;10.40;99.90;;;;;;5052066;28;20536;-70
2022/11/12 01:04:07;;;;;;;9.23;8.40;;;10.30;99.90;;;;;;5050377;28;20185;-70
2022/11/12 01:06:32;;;;;;;9.50;8.60;;;10.30;99.90;;;;;;5033547;28;20424;-70
2022/11/12 01:08:58;;;;;;;9.30;8.30;;;10.30;99.90;;;;;;5034524;28;20420;-70
2022/11/12 01:11:26;;;;;;;9.00;8.20;;;10.30;99.90;;;;;;5051841;28;20639;-70
2022/11/12 01:13:58;;;;;;;9.33;8.33;;;10.40;99.90;;;;;;5050306;28;20461;-70
2022/11/12 01:16:27;;;;;;;9.33;8.30;;;10.30;99.90;;;;;;5034022;28;20422;-70
2022/11/12 01:18:56;;;;;;;9.53;8.73;;;10.40;99.90;;;;;;5052425;28;20411;-70
2022/11/12 01:21:24;;;;;;;12.30;8.37;;;10.30;99.90;;;;;;5051769;28;20423;-70
2022/11/12 01:23:49;;;;;;;9.07;8.17;;;10.30;99.90;;;;;;5052410;28;20428;-69
2022/11/12 01:26:18;;;;;;;9.13;8.30;;;10.30;99.90;;;;;;5051811;28;20963;-73
2022/11/12 01:28:43;;;;;;;9.90;9.00;;;10.20;99.90;;;;;;5051279;28;20208;-70
2022/11/12 01:31:31;;;;;;;9.70;8.67;;;10.20;99.90;;;;;;5052044;28;20455;-70
2022/11/12 01:33:59;;;;;;;9.50;8.50;;;10.20;99.90;;;;;;5051691;28;20232;-70
2022/11/12 01:36:27;;;;;;;11.10;10.03;;;10.20;99.90;;;;;;5051541;28;20412;-70
2022/11/12 01:38:53;;;;;;;10.17;9.27;;;10.20;99.90;;;;;;5051993;28;20517;-70
2022/11/12 01:41:25;;;;;;;10.47;9.50;;;10.20;99.90;;;;;;5050897;28;20453;-70
2022/11/12 01:44:10;;;;;;;12.47;9.20;;;10.30;99.90;;;;;;5051999;28;20415;-70
2022/11/12 01:46:44;;;;;;;10.80;9.47;;;10.20;99.90;;;;;;5051591;28;20418;-70
2022/11/12 01:49:16;;;;;;;13.97;9.73;;;10.20;99.90;;;;;;5051884;28;20876;-70
2022/11/12 01:51:47;;;;;;;10.50;9.47;;;10.10;99.90;;;;;;5052146;28;20444;-70
2022/11/12 01:54:17;;;;;;;10.93;9.50;;;10.20;99.90;;;;;;5052175;28;20467;-70
2022/11/12 01:56:43;;;;;;;11.47;10.37;;;10.10;99.90;;;;;;5052059;28;20458;-70
2022/11/12 01:59:21;;;;;;;12.70;10.57;;;10.00;99.90;;;;;;5049774;28;20421;-70
2022/11/12 02:01:47;;;;;;;11.60;10.50;;;10.00;99.90;;;;;;5050296;28;20887;-70
2022/11/12 02:04:13;;;;;;;12.27;11.07;;;10.00;99.90;;;;;;5054337;28;20431;-70
2022/11/12 02:06:41;;;;;;;15.73;11.03;;;10.00;99.90;;;;;;5054790;28;20219;-70
2022/11/12 02:09:07;;;;;;;12.43;10.83;;;10.10;99.90;;;;;;5053646;28;20517;-70
2022/11/12 02:11:33;;;;;;;10.80;9.57;;;10.00;99.90;;;;;;5054888;28;20512;-70
2022/11/12 02:14:03;;;;;;;10.60;9.70;;;10.00;99.90;;;;;;5052206;28;20947;-70
2022/11/12 02:16:36;;;;;;;11.20;10.20;;;10.00;99.90;;;;;;5055310;28;20668;-70
2022/11/12 02:19:05;;;;;;;10.90;9.90;;;10.00;99.90;;;;;;5054654;28;20908;-70
2022/11/12 02:21:30;;;;;;;10.83;9.77;;;9.90;99.90;;;;;;5053774;28;20431;-70
2022/11/12 02:24:13;;;;;;;10.23;9.23;;;9.90;99.90;;;;;;5053423;28;20503;-70
2022/11/12 02:26:46;;;;;;;9.57;8.57;;;10.00;99.90;;;;;;5054856;28;20372;-70
2022/11/12 02:29:12;;;;;;;9.07;8.27;;;10.00;99.90;;;;;;5055371;28;20775;-70
2022/11/12 02:31:38;;;;;;;8.90;8.03;;;9.90;99.90;;;;;;5054629;28;20844;-70
2022/11/12 02:34:04;;;;;;;9.80;8.80;;;9.90;99.90;;;;;;5055231;28;20503;-70
2022/11/12 02:36:29;;;;;;;9.70;8.70;;;9.90;99.90;;;;;;5054546;28;20170;-70
2022/11/12 02:38:55;;;;;;;9.30;8.50;;;9.90;99.90;;;;;;5054642;28;20437;-70
2022/11/12 02:41:21;;;;;;;9.67;8.83;;;9.80;99.90;;;;;;5054480;28;20181;-70
2022/11/12 02:43:47;;;;;;;9.03;7.90;;;9.80;99.90;;;;;;5054432;28;20421;-70
2022/11/12 02:46:13;;;;;;;8.97;8.17;;;9.80;99.90;;;;;;5054542;28;20583;-70
2022/11/12 02:48:39;;;;;;;9.23;8.43;;;9.80;99.90;;;;;;5054380;28;20171;-70
2022/11/12 02:51:05;;;;;;;9.03;8.23;;;9.80;99.90;;;;;;5054696;28;20473;-70
2022/11/12 02:53:31;;;;;;;10.17;9.07;;;9.80;99.90;;;;;;5051952;28;20210;-70
2022/11/12 02:55:58;;;;;;;10.37;9.43;;;9.80;99.90;;;;;;5036945;28;20416;-70
2022/11/12 02:58:24;;;;;;;9.67;8.77;;;9.70;99.90;;;;;;5053424;28;20424;-72
2022/11/12 03:00:50;;;;;;;11.13;9.77;;;9.70;99.90;;;;;;5054354;28;20508;-70
2022/11/12 03:03:16;;;;;;;12.60;10.13;;;9.60;99.90;;;;;;5051796;28;20195;-70
2022/11/12 03:05:42;;;;;;;11.43;9.50;;;9.60;99.90;;;;;;5053293;28;20232;-70
2022/11/12 03:08:08;;;;;;;11.20;10.13;;;9.60;99.90;;;;;;5054192;28;20457;-70
2022/11/12 03:10:37;;;;;;;10.67;9.67;;;9.60;99.90;;;;;;5053437;28;20417;-70
2022/11/12 03:13:04;;;;;;;11.47;10.33;;;9.60;99.90;;;;;;5054021;28;20448;-70
2022/11/12 03:15:29;;;;;;;10.83;9.73;;;9.60;99.90;;;;;;5053083;28;20416;-70
2022/11/12 03:17:58;;;;;;;11.10;9.70;;;9.50;99.90;;;;;;5053930;28;20418;-70
2022/11/12 03:20:24;;;;;;;12.73;10.90;;;9.60;99.90;;;;;;5053840;28;20224;-71
2022/11/12 03:23:02;;;;;;;10.60;9.60;;;9.50;99.90;;;;;;5052020;28;20432;-70
2022/11/12 03:25:28;;;;;;;10.73;9.60;;;9.50;99.90;;;;;;5053192;28;20431;-70
2022/11/12 03:27:59;;;;;;;11.83;10.67;;;9.50;99.90;;;;;;5053826;28;20400;-70
2022/11/12 03:30:29;;;;;;;10.73;9.83;;;9.50;99.90;;;;;;5034822;28;20494;-72
2022/11/12 03:32:55;;;;;;;9.80;8.90;;;9.50;99.90;;;;;;5053788;28;20457;-70
2022/11/12 03:35:22;;;;;;;10.33;9.43;;;9.50;99.90;;;;;;5053687;28;20973;-70
2022/11/12 03:37:48;;;;;;;10.93;9.87;;;9.50;99.90;;;;;;5052788;28;20178;-70
2022/11/12 03:40:14;;;;;;;10.07;9.17;;;9.40;99.90;;;;;;5053613;28;20408;-70
2022/11/12 03:42:47;;;;;;;10.37;9.37;;;9.40;99.90;;;;;;5052011;28;20193;-70
2022/11/12 03:45:13;;;;;;;10.10;9.10;;;9.40;99.90;;;;;;5052608;28;20702;-70
2022/11/12 03:47:47;;;;;;;10.93;9.33;;;9.40;99.90;;;;;;5052424;28;20408;-69
2022/11/12 03:50:15;;;;;;;10.30;9.37;;;9.40;99.90;;;;;;5053635;28;20403;-70
2022/11/12 03:52:48;;;;;;;10.20;9.20;;;9.40;99.90;;;;;;5051495;28;20520;-70
2022/11/12 03:55:16;;;;;;;10.63;9.63;;;9.40;99.90;;;;;;5053270;28;20408;-70
2022/11/12 03:57:42;;;;;;;9.90;8.90;;;9.40;99.90;;;;;;5051700;28;20435;-70
2022/11/12 04:00:09;;;;;;;10.80;9.70;;;9.40;99.90;;;;;;5053398;28;20405;-70
2022/11/12 04:02:35;;;;;;;9.23;8.27;;;9.40;99.90;;;;;;5028182;28;20779;-70
2022/11/12 04:10:34;;;;;;;9.77;8.87;;;9.40;99.90;;;;;;5032013;28;20421;-69
2022/11/12 04:21:49;;;;;;;10.67;9.50;;;9.30;99.90;;;;;;5032493;28;20406;-70
2022/11/12 04:23:59;;;;;;;10.60;9.60;;;9.30;99.90;;;;;;5032798;28;20917;-70
2022/11/12 04:26:24;;;;;;;9.60;8.80;;;9.30;99.90;;;;;;5045533;28;20434;-70
2022/11/12 04:31:34;;;;;;;10.03;9.03;;;9.30;99.90;;;;;;5051904;28;20174;-70
2022/11/12 04:34:27;;;;;;;9.43;8.43;;;9.20;99.90;;;;;;5016734;28;20949;-69
2022/11/12 04:36:45;;;;;;;10.77;9.50;;;9.20;99.90;;;;;;5051751;28;20182;-69
2022/11/12 04:39:11;;;;;;;9.37;8.57;;;9.20;99.90;;;;;;5049660;28;20427;-70
2022/11/12 04:47:05;;;;;;;10.60;9.47;;;9.10;99.90;;;;;;5032426;28;20427;-70
2022/11/12 04:49:31;;;;;;;9.87;8.97;;;9.10;99.90;;;;;;5031720;28;20877;-72
2022/11/12 04:52:05;;;;;;;10.57;9.57;;;9.10;99.90;;;;;;5036405;28;20219;-69
2022/11/12 04:54:32;;;;;;;10.00;9.00;;;9.10;99.90;;;;;;5031777;28;20174;-74
2022/11/12 04:56:59;;;;;;;9.97;9.07;;;9.10;99.90;;;;;;5014982;28;20432;-68
2022/11/12 04:59:25;;;;;;;11.07;9.97;;;9.10;99.90;;;;;;5032597;28;20483;-68
2022/11/12 05:01:51;;;;;;;10.27;9.20;;;9.10;99.90;;;;;;5039417;28;20434;-70
2022/11/12 05:04:16;;;;;;;9.13;8.43;;;9.10;99.90;;;;;;5052015;28;20420;-68
2022/11/12 05:06:51;;;;;;;10.07;9.10;;;9.00;99.90;;;;;;5049521;28;20229;-68
2022/11/12 05:09:22;;;;;;;9.43;8.60;;;8.90;99.90;;;;;;5034345;28;20177;-67
2022/11/12 05:11:48;;;;;;;10.60;9.70;;;8.80;99.90;;;;;;5051149;28;20408;-68
2022/11/12 05:14:14;;;;;;;10.13;9.13;;;8.70;99.90;;;;;;5052032;28;20423;-67
2022/11/12 05:16:40;;;;;;;10.80;9.20;;;8.70;99.90;;;;;;5051542;28;20170;-67
2022/11/12 05:19:06;;;;;;;11.67;9.60;;;8.70;99.90;;;;;;5034344;28;20181;-68
2022/11/12 05:24:16;;;;;;;9.47;8.60;;;8.60;99.90;;;;;;5051751;28;20903;-67
2022/11/12 05:26:42;;;;;;;9.13;8.33;;;8.60;99.90;;;;;;5034066;28;20419;-68
2022/11/12 05:29:07;;;;;;;9.30;8.37;;;8.50;99.90;;;;;;5051462;28;20232;-67
2022/11/12 05:31:34;;;;;;;9.43;8.63;;;8.60;99.90;;;;;;5051671;28;20220;-68
2022/11/12 05:33:59;;;;;;;9.33;8.53;;;8.50;99.90;;;;;;5051388;28;20231;-67
2022/11/12 05:36:25;;;;;;;11.20;9.37;;;8.40;99.90;;;;;;5052494;28;20504;-67
2022/11/12 05:38:51;;;;;;;8.30;7.57;;;8.40;99.90;;;;;;5055663;28;20185;-67
2022/11/12 05:41:17;;;;;;;9.70;8.70;;;8.30;99.90;;;;;;5038135;28;20404;-67
2022/11/12 05:43:42;;;;;;;9.43;8.53;;;8.40;99.90;;;;;;5055643;28;20178;-68
2022/11/12 05:46:08;;;;;;;11.77;8.97;;;8.30;99.90;;;;;;5056121;28;20692;-66
2022/11/12 05:48:34;;;;;;;9.57;8.77;;;8.30;99.90;;;;;;5054503;28;20436;-69
2022/11/12 05:50:59;;;;;;;10.17;9.17;;;8.20;99.90;;;;;;5053694;28;20463;-69
2022/11/12 05:53:25;;;;;;;9.40;8.50;;;8.30;99.90;;;;;;5052573;28;20209;-69
2022/11/12 05:55:51;;;;;;;12.10;9.43;;;8.50;99.90;;;;;;5052940;28;20198;-69
2022/11/12 05:58:17;;;;;;;9.30;8.50;;;8.60;99.90;;;;;;5053686;28;20182;-69
2022/11/12 06:00:43;;;;;;;11.50;9.20;;;8.60;99.90;;;;;;5036765;28;20193;-69
2022/11/12 06:03:10;;;;;;;12.37;9.47;;;8.70;99.90;;;;;;5056060;28;20416;-69
2022/11/12 06:05:36;;;;;;;10.77;9.67;;;8.80;99.90;;;;;;5054859;28;20188;-69
2022/11/12 06:08:04;;;;;;;9.70;8.90;;;8.80;99.90;;;;;;5021044;28;20566;-69
2022/11/12 06:10:30;;;;;;;10.20;8.40;;;8.90;99.90;;;;;;5055402;28;20420;-69
2022/11/12 06:12:56;;;;;;;10.00;9.00;;;8.90;99.90;;;;;;5054108;28;20464;-69
2022/11/12 06:15:25;;;;;;;9.53;8.53;;;9.10;99.90;;;;;;5054008;28;20436;-71
2022/11/12 06:17:52;;;;;;;10.10;9.10;;;9.00;99.90;;;;;;5043447;28;20917;-70
2022/11/12 06:20:18;;;;;;;9.50;8.60;;;9.00;99.90;;;;;;5048300;28;20436;-70
2022/11/12 06:22:43;;;;;;;9.60;8.80;;;9.10;99.90;;;;;;5039329;28;20967;-70
2022/11/12 06:25:09;;;;;;;9.73;8.80;;;9.10;99.90;;;;;;5034953;28;20413;-70
2022/11/12 06:27:35;;;;;;;10.47;9.40;;;9.10;99.90;;;;;;5035014;28;20175;-73
2022/11/12 06:30:01;;;;;;;9.80;8.80;;;9.10;99.90;;;;;;5034955;28;20448;-70
2022/11/12 06:32:26;;;;;;;9.20;8.40;;;9.10;99.90;;;;;;5032323;28;20218;-70
2022/11/12 06:34:52;;;;;;;8.77;8.07;;;9.20;99.90;;;;;;5052287;28;20610;-70
2022/11/12 06:37:20;;;;;;;9.93;8.80;;;9.20;99.90;;;;;;5050215;28;20262;-71
2022/11/12 06:39:46;;;;;;;9.20;8.33;;;9.20;99.90;;;;;;5046036;28;20432;-71
2022/11/12 06:42:12;;;;;;;9.83;8.83;;;9.20;99.90;;;;;;5038489;28;20443;-71
2022/11/12 06:44:38;;;;;;;10.37;8.40;;;9.20;99.30;;;;;;5046071;28;20821;-72
2022/11/12 06:47:03;;;;;;;10.33;9.20;;;9.20;99.50;;;;;;5034569;28;20417;-70
2022/11/12 06:49:29;;;;;;;10.03;9.13;;;9.20;99.60;;;;;;5035512;28;20181;-70
2022/11/12 06:51:55;;;;;;;9.43;8.60;;;9.20;99.30;;;;;;5049723;28;20217;-70
2022/11/12 06:54:21;;;;;;;10.00;9.10;;;9.20;99.20;;;;;;5054119;28;20642;-68
2022/11/12 06:56:46;;;;;;;11.40;10.20;;;9.20;99.20;;;;;;5053664;28;20205;-71
2022/11/12 06:59:12;;;;;;;10.87;9.87;;;9.20;99.20;;;;;;5034142;28;20220;-70
2022/11/12 07:01:38;;;;;;;13.23;9.87;;;9.20;99.30;;;;;;5045741;28;20178;-73
2022/11/12 07:04:04;;;;;;;11.87;10.77;;;9.20;99.30;;;;;;5023785;28;20175;-70
2022/11/12 07:06:30;;;;;;;10.93;9.97;;;9.30;99.10;;;;;;5047566;28;20424;-70
2022/11/12 07:08:55;;;;;;;10.07;9.17;;;9.30;99.00;;;;;;5045273;28;20448;-70
2022/11/12 07:11:21;;;;;;;11.27;10.07;;;9.30;99.10;;;;;;5051011;28;20170;-70
2022/11/12 07:13:47;;;;;;;12.40;10.63;;;9.30;99.30;;;;;;5028649;28;20209;-70
2022/11/12 07:16:17;;;;;;;11.87;10.77;;;9.30;99.50;;;;;;5053852;28;20631;-70
2022/11/12 07:18:46;;;;;;;11.07;9.97;;;9.30;99.60;;;;;;5033937;28;21070;-71
2022/11/12 07:21:14;;;;;;;12.10;10.90;;;9.40;99.10;;;;;;5046781;28;20425;-70
2022/11/12 07:23:40;;;;;;;13.33;10.50;;;9.40;99.10;;;;;;5046570;28;20416;-72
2022/11/12 07:26:13;;;;;;;11.40;10.30;;;9.40;99.60;;;;;;5049563;28;20485;-70
2022/11/12 07:28:40;;;;;;;11.07;9.97;;;9.40;99.70;;;;;;5051797;28;20216;-70
2022/11/12 07:31:09;;;;;;;14.00;9.50;;;9.50;99.90;;;;;;5028553;28;20429;-70
2022/11/12 07:33:35;;;;;;;11.80;10.70;;;9.50;99.80;;;;;;5040950;28;20458;-70
2022/11/12 07:36:03;;;;;;;12.17;10.00;;;9.50;99.80;;;;;;5033129;28;20428;-70
2022/11/12 07:38:31;;;;;;;10.30;9.13;;;9.60;99.90;;;;;;5052407;28;20443;-70
2022/11/12 07:41:01;;;;;;;10.30;9.17;;;9.60;99.60;;;;;;5034563;28;20514;-70
2022/11/12 07:43:28;;;;;;;10.63;9.60;;;9.60;99.50;;;;;;5049115;28;20762;-71
2022/11/12 07:46:06;;;;;;;10.50;9.50;;;9.60;99.30;;;;;;5040957;28;20457;-70
2022/11/12 07:48:32;;;;;;;12.17;11.07;;;9.70;99.70;;;;;;5053270;28;20753;-70
2022/11/12 07:51:00;;;;;;;9.97;9.00;;;9.70;99.90;;;;;;5052922;28;20420;-71
2022/11/12 07:53:26;;;;;;;11.30;10.20;;;9.70;99.90;;;;;;5053410;28;20496;-70
2022/11/12 07:55:54;;;;;;;12.80;10.10;;;9.90;99.90;;;;;;5052279;28;20424;-71
2022/11/12 07:58:20;;;;;;;10.60;9.50;;;9.80;99.90;;;;;;5035080;28;20905;-71
2022/11/12 08:00:46;;;;;;;14.67;13.27;;;9.90;99.90;;;;;;5048020;28;20448;-71
2022/11/12 08:03:11;;;;;;;13.03;11.80;;;9.90;99.90;;;;;;5050536;28;20182;-70
2022/11/12 08:05:37;;;;;;;16.60;15.00;;;10.00;99.90;;;;;;5052518;28;20992;-71
2022/11/12 08:08:03;;;;;;;14.77;13.37;;;10.00;99.80;;;;;;5051598;28;20730;-71
2022/11/12 08:10:29;;;;;;;14.10;11.53;;;10.10;99.80;;;;;;5053123;28;20537;-71
2022/11/12 08:12:57;;;;;;;14.07;12.60;;;10.20;99.90;;;;;;5051470;28;20947;-71
2022/11/12 08:15:23;;;;;;;14.47;13.00;;;10.30;99.90;;;;;;5046939;28;20213;-71
2022/11/12 08:17:49;;;;;;;14.47;12.27;;;10.40;99.90;;;;;;5045547;28;20474;-70
2022/11/12 08:20:15;;;;;;;12.93;11.53;;;10.50;99.90;;;;;;5031105;28;20431;-67
2022/11/12 08:22:41;;;;;;;12.77;11.47;;;10.60;99.90;;;;;;5048853;28;20273;-69
2022/11/12 08:25:07;;;;;;;12.60;11.30;;;10.60;99.90;;;;;;5020362;28;20212;-67
2022/11/12 08:27:33;;;;;;;13.25;11.85;;;10.70;99.90;;;;;;5032138;28;20488;-67
2022/11/12 08:29:59;;;;;;;12.67;10.40;;;10.80;99.90;;;;;;5032718;28;20175;-67
2022/11/12 08:32:25;;;;;;;11.13;9.50;;;10.90;99.90;;;;;;5038865;28;20949;-67
2022/11/12 08:34:53;;;;;;;9.43;8.53;;;11.00;99.90;;;;;;5052309;28;20173;-67
2022/11/12 08:37:19;;;;;;;11.10;9.07;;;11.20;99.90;;;;;;5053252;28;20879;-67
2022/11/12 08:39:44;;;;;;;9.67;8.87;;;11.40;99.90;;;;;;5017271;28;20676;-67
2022/11/12 08:42:10;;;;;;;9.77;8.97;;;11.80;99.50;;;;;;5052983;28;20180;-67
2022/11/12 08:44:38;;;;;;;10.10;9.10;;;12.20;97.60;;;;;;5048008;28;20185;-67
2022/11/12 08:47:04;;;;;;;9.70;8.90;;;12.70;96.30;;;;;;5036765;28;20430;-67
2022/11/12 08:49:30;;;;;;;10.30;9.30;;;13.20;95.70;;;;;;5020807;28;20182;-68
2022/11/12 08:51:56;;;;;;;9.97;9.00;;;13.70;94.40;;;;;;5051114;28;20190;-67
2022/11/12 08:54:23;;;;;;;9.53;8.73;;;14.30;94.10;;;;;;5052590;28;20180;-68
2022/11/12 08:56:50;;;;;;;10.80;9.87;;;14.70;92.40;;;;;;5049273;28;20433;-68
2022/11/12 08:59:15;;;;;;;11.70;9.60;;;15.00;90.70;;;;;;5052489;28;20477;-67
2022/11/12 09:01:41;;;;;;;10.20;9.27;;;15.10;90.30;;;;;;5051244;28;20785;-67
2022/11/12 09:04:07;;;;;;;12.23;9.77;;;15.30;90.70;;;;;;5029875;28;20519;-67
2022/11/12 09:06:33;;;;;;;10.57;9.47;;;15.50;90.60;;;;;;5034011;28;20181;-67
2022/11/12 09:08:58;;;;;;;10.63;9.53;;;15.90;88.20;;;;;;5031309;28;20544;-68
2022/11/12 09:11:24;;;;;;;9.77;8.90;;;16.10;86.50;;;;;;5031919;28;20179;-67
2022/11/12 09:13:54;;;;;;;9.80;9.00;;;16.20;85.00;;;;;;5031586;28;20487;-68
2022/11/12 09:16:23;;;;;;;9.37;8.40;;;16.40;84.60;;;;;;5032063;28;20409;-68
2022/11/12 09:18:48;;;;;;;9.33;8.53;;;16.40;85.80;;;;;;5042066;28;20532;-68
2022/11/12 09:21:14;;;;;;;9.57;8.53;;;16.40;82.80;;;;;;5052028;28;20500;-67
2022/11/12 09:23:40;;;;;;;9.97;9.17;;;16.50;83.00;;;;;;5043822;28;20672;-67
2022/11/12 09:26:06;;;;;;;9.93;8.97;;;16.50;83.00;;;;;;5031275;28;20307;-67
2022/11/12 09:28:32;;;;;;;10.20;9.20;;;16.60;83.10;;;;;;5032096;28;20205;-67
2022/11/12 09:30:58;;;;;;;10.93;9.93;;;16.40;80.80;;;;;;5031282;28;20443;-67
2022/11/12 09:33:29;;;;;;;10.63;9.73;;;16.20;81.30;;;;;;5032022;28;20204;-68
2022/11/12 09:35:58;;;;;;;11.07;9.87;;;15.90;82.30;;;;;;4998925;28;20547;-68
2022/11/12 09:38:24;;;;;;;9.93;9.03;;;15.80;84.60;;;;;;5016870;28;20426;-68
2022/11/12 09:40:50;;;;;;;10.63;9.60;;;15.60;87.50;;;;;;5042688;28;20423;-68
2022/11/12 09:43:35;;;;;;;11.20;10.00;;;15.50;87.30;;;;;;5032370;28;20636;-67
2022/11/12 09:46:13;;;;;;;10.83;9.37;;;15.40;88.70;;;;;;5031814;28;20157;-67
2022/11/12 09:48:44;;;;;;;10.00;9.20;;;15.30;90.00;;;;;;5048952;28;20990;-68
2022/11/12 09:51:25;;;;;;;10.17;9.27;;;15.30;92.60;;;;;;5050293;28;20429;-69
2022/11/12 09:53:56;;;;;;;10.07;9.27;;;15.40;92.20;;;;;;5044197;28;20508;-68
2022/11/12 09:56:23;;;;;;;10.70;9.70;;;15.50;91.80;;;;;;5034494;28;20435;-68
2022/11/12 09:58:50;;;;;;;10.63;9.73;;;15.70;91.70;;;;;;5051479;28;20431;-68
2022/11/12 10:01:39;;;;;;;10.80;10.00;;;15.90;91.40;;;;;;5050972;28;20431;-67
2022/11/12 10:04:17;;;;;;;9.87;9.07;;;16.00;91.80;;;;;;5029236;28;20959;-68
2022/11/12 10:06:54;;;;;;;10.33;9.43;;;16.20;90.90;;;;;;5045855;28;20539;-68
2022/11/12 10:09:26;;;;;;;9.00;8.23;;;16.40;90.60;;;;;;5031964;28;20978;-68
2022/11/12 10:12:32;;;;;;;9.57;8.80;;;16.60;87.20;;;;;;5031113;28;20435;-68
2022/11/12 10:18:13;;;;;;;10.80;9.90;;;16.90;85.90;;;;;;5036339;28;20592;-68
2022/11/12 10:20:58;;;;;;;10.10;9.30;;;17.10;85.30;;;;;;5050903;28;20400;-68
2022/11/12 10:23:42;;;;;;;10.17;9.27;;;17.20;84.90;;;;;;5052166;28;20813;-68
2022/11/12 10:26:14;;;;;;;9.10;8.43;;;17.30;85.50;;;;;;5053273;28;20686;-68
2022/11/12 10:28:58;;;;;;;9.93;9.13;;;17.50;84.10;;;;;;5054142;28;20973;-67
2022/11/12 10:31:23;;;;;;;9.73;8.93;;;17.80;82.10;;;;;;5054667;28;20420;-69
2022/11/12 10:33:49;;;;;;;10.30;9.50;;;17.80;81.00;;;;;;5054741;28;20489;-69
2022/11/12 10:36:33;;;;;;;10.27;9.17;;;18.00;81.50;;;;;;5055337;28;20515;-70
2022/11/12 10:38:58;;;;;;;8.40;7.70;;;18.20;81.50;;;;;;5039061;28;20181;-68
2022/11/12 10:41:27;;;;;;;8.63;7.93;;;18.40;80.10;;;;;;5054710;28;20899;-68
2022/11/12 10:44:04;;;;;;;8.07;7.47;;;18.60;78.90;;;;;;5053286;28;20182;-68
2022/11/12 10:46:30;;;;;;;7.90;7.30;;;18.80;76.20;;;;;;5055055;28;20404;-68
2022/11/12 10:49:02;;;;;;;10.20;9.30;;;19.00;77.10;;;;;;5053606;28;20470;-68
2022/11/12 10:51:37;;;;;;;10.27;9.37;;;19.20;76.00;;;;;;5054011;28;20200;-68
2022/11/12 10:54:25;;;;;;;9.87;9.07;;;19.40;74.40;;;;;;5053791;28;20797;-68
2022/11/12 10:56:51;;;;;;;8.80;8.20;;;19.50;74.80;;;;;;5036346;28;20401;-71
2022/11/12 10:59:20;;;;;;;27.37;24.47;;;19.70;77.20;;;;;;5053951;28;20441;-69
2022/11/12 11:01:57;;;;;;;365.87;293.90;;;19.80;75.40;;;;;;5053651;28;20189;-69
2022/11/12 11:04:36;;;;;;;49.70;39.40;;;19.80;77.10;;;;;;5054421;28;20498;-68
2022/11/12 11:07:04;;;;;;;14.30;12.80;;;20.00;75.90;;;;;;5053698;28;20462;-68
2022/11/12 11:09:30;;;;;;;9.53;8.70;;;20.00;75.50;;;;;;5036708;28;20428;-68
2022/11/12 11:11:56;;;;;;;9.67;8.97;;;20.10;75.50;;;;;;5034660;28;20416;-68
2022/11/12 11:14:22;;;;;;;9.03;8.40;;;20.10;72.60;;;;;;5053949;28;20428;-68
2022/11/12 11:17:03;;;;;;;9.10;8.30;;;20.20;75.10;;;;;;5054606;28;20454;-68
2022/11/12 11:19:37;;;;;;;9.33;8.60;;;20.40;74.80;;;;;;5036743;28;20490;-68
2022/11/12 11:22:23;;;;;;;9.80;9.00;;;20.50;71.70;;;;;;5035155;28;20523;-68
2022/11/12 11:25:06;;;;;;;9.10;8.33;;;20.60;71.60;;;;;;5035115;28;20430;-69
2022/11/12 11:27:45;;;;;;;9.90;8.90;;;20.60;72.00;;;;;;5052561;28;20427;-68
2022/11/12 11:30:13;;;;;;;8.60;7.90;;;20.60;73.40;;;;;;5035951;28;20578;-68
2022/11/12 11:33:11;;;;;;;8.10;7.37;;;20.60;71.50;;;;;;5054324;28;20790;-68
2022/11/12 11:36:10;;;;;;;7.40;6.90;;;20.70;68.10;;;;;;5036265;28;20424;-68
2022/11/12 11:38:57;;;;;;;7.33;6.77;;;20.70;70.40;;;;;;5053038;28;20423;-68
2022/11/12 11:41:42;;;;;;;7.93;7.33;;;20.80;71.60;;;;;;5042251;28;20478;-68
2022/11/12 11:44:26;;;;;;;659.40;526.33;;;20.90;72.20;;;;;;5047682;28;20440;-68
2022/11/12 11:47:13;;;;;;;38.23;32.53;;;21.00;73.60;;;;;;5041510;28;20423;-69
2022/11/12 11:49:51;;;;;;;10.20;9.30;;;21.00;71.70;;;;;;5045601;28;20436;-67
2022/11/12 11:52:32;;;;;;;9.20;7.97;;;20.90;70.60;;;;;;5046466;28;20967;-68
2022/11/12 11:55:07;;;;;;;7.47;6.87;;;20.90;69.40;;;;;;5043105;28;20435;-67
2022/11/12 11:57:47;;;;;;;7.20;6.70;;;20.80;70.90;;;;;;5041563;28;20523;-67
2022/11/12 12:00:21;;;;;;;7.83;7.27;;;20.70;70.00;;;;;;5040570;28;20763;-68
2022/11/12 12:03:08;;;;;;;8.57;7.90;;;20.60;70.00;;;;;;5041734;28;20835;-68
2022/11/12 12:05:49;;;;;;;8.70;7.13;;;20.60;70.50;;;;;;5040269;28;20459;-68
2022/11/12 12:08:37;;;;;;;8.43;7.77;;;20.50;71.90;;;;;;5039169;28;20468;-68
2022/11/12 12:11:38;;;;;;;8.83;8.20;;;20.50;72.10;;;;;;5040392;28;20462;-68
2022/11/12 12:14:15;;;;;;;8.67;7.87;;;20.50;73.00;;;;;;4942775;28;20720;-69
2022/11/12 12:16:59;;;;;;;8.33;7.60;;;20.40;74.80;;;;;;5016666;28;20975;-68
2022/11/12 12:19:43;;;;;;;8.17;7.47;;;20.40;75.20;;;;;;5041225;28;20433;-69
2022/11/12 12:22:14;;;;;;;7.13;6.47;;;20.40;77.00;;;;;;5043840;28;20440;-68
2022/11/12 12:25:17;;;;;;;7.07;6.67;;;20.30;78.70;;;;;;5043287;28;20397;-68
2022/11/12 12:28:03;;;;;;;7.53;6.93;;;20.30;75.80;;;;;;5036222;28;20506;-68
2022/11/12 12:30:35;;;;;;;6.97;6.37;;;20.20;77.50;;;;;;4944365;28;20853;-68
2022/11/12 12:33:16;;;;;;;6.10;5.60;;;20.20;78.00;;;;;;5042018;28;20476;-68
2022/11/12 12:35:53;;;;;;;6.83;6.33;;;20.10;77.70;;;;;;5040633;28;20448;-68
2022/11/12 12:38:33;;;;;;;7.00;6.30;;;20.00;75.80;;;;;;5040543;28;20759;-68
2022/11/12 12:41:13;;;;;;;6.70;6.30;;;20.10;74.40;;;;;;5037647;28;20775;-68
2022/11/12 12:43:51;;;;;;;8.13;7.33;;;20.10;78.70;;;;;;5039463;28;20445;-68
2022/11/12 12:46:21;;;;;;;7.97;7.37;;;20.00;80.50;;;;;;5040834;28;20434;-68
2022/11/12 12:48:50;;;;;;;7.40;6.90;;;19.90;78.70;;;;;;5044537;28;20424;-68
2022/11/12 12:51:17;;;;;;;7.87;7.27;;;19.90;77.70;;;;;;5041233;28;20435;-68
2022/11/12 12:53:42;;;;;;;7.67;7.13;;;19.80;81.30;;;;;;5039998;28;21023;-68
2022/11/12 12:56:14;;;;;;;7.73;7.03;;;19.70;83.10;;;;;;5040389;28;20523;-68
2022/11/12 12:58:40;;;;;;;7.87;7.20;;;19.70;80.30;;;;;;5040680;28;20223;-68
2022/11/12 13:01:12;;;;;;;8.10;7.30;;;19.70;80.90;;;;;;5022361;28;20448;-69
2022/11/12 13:03:47;;;;;;;6.83;6.30;;;19.70;82.00;;;;;;5021624;28;20576;-68
2022/11/12 13:06:22;;;;;;;8.00;7.40;;;19.60;80.70;;;;;;5041042;28;20519;-68
2022/11/12 13:08:57;;;;;;;7.13;6.57;;;19.60;84.10;;;;;;5041210;28;20446;-68
2022/11/12 13:14:34;;;;;;;8.30;7.50;;;19.50;84.50;;;;;;5032622;28;20543;-68
2022/11/12 13:17:06;;;;;;;7.87;7.17;;;19.40;87.00;;;;;;5047475;28;20420;-68
2022/11/12 13:19:36;;;;;;;8.37;7.73;;;19.40;88.00;;;;;;5052155;28;20908;-67
2022/11/12 13:22:17;;;;;;;7.70;7.10;;;19.30;86.40;;;;;;5040867;28;20500;-67
2022/11/12 13:25:03;;;;;;;8.30;7.60;;;19.30;86.00;;;;;;5040012;28;20435;-67
2022/11/12 13:27:44;;;;;;;170.77;110.50;;;19.30;87.20;;;;;;5032467;28;20911;-67